sensor_id;sensor_type;location;lat;lon;timestamp;P1;durP1;ratioP1;P2;durP2;ratioP2
9186;SDS011;7273;48.902;9.410;2023-08-06T00:01:49;0.20;;;0.20;;
9186;SDS011;7273;48.902;9.410;2023-08-06T00:04:15;0.55;;;0.55;;
9186;SDS011;7273;48.902;9.410;2023-08-06T00:06:41;1.33;;;0.60;;
9186;SDS011;7273;48.902;9.410;2023-08-06T00:09:06;1.48;;;0.55;;
9186;SDS011;7273;48.902;9.410;2023-08-06T00:11:32;0.70;;;0.70;;
9186;SDS011;7273;48.902;9.410;2023-08-06T00:13:58;1.23;;;0.68;;
9186;SDS011;7273;48.902;9.410;2023-08-06T00:16:24;0.55;;;0.55;;
9186;SDS011;7273;48.902;9.410;2023-08-06T00:18:49;0.50;;;0.50;;
9186;SDS011;7273;48.902;9.410;2023-08-06T00:21:15;0.88;;;0.68;;
9186;SDS011;7273;48.902;9.410;2023-08-06T00:23:41;0.68;;;0.68;;
9186;SDS011;7273;48.902;9.410;2023-08-06T00:26:06;1.60;;;0.60;;
9186;SDS011;7273;48.902;9.410;2023-08-06T00:28:32;0.70;;;0.50;;
9186;SDS011;7273;48.902;9.410;2023-08-06T00:30:58;1.02;;;0.80;;
9186;SDS011;7273;48.902;9.410;2023-08-06T00:33:23;2.17;;;0.95;;
9186;SDS011;7273;48.902;9.410;2023-08-06T00:35:50;1.92;;;1.13;;
9186;SDS011;7273;48.902;9.410;2023-08-06T00:38:16;0.88;;;0.70;;
9186;SDS011;7273;48.902;9.410;2023-08-06T00:40:42;1.52;;;1.02;;
9186;SDS011;7273;48.902;9.410;2023-08-06T00:43:07;1.33;;;0.95;;
9186;SDS011;7273;48.902;9.410;2023-08-06T00:45:34;1.17;;;1.00;;
9186;SDS011;7273;48.902;9.410;2023-08-06T00:48:00;2.08;;;0.95;;
9186;SDS011;7273;48.902;9.410;2023-08-06T00:50:27;1.35;;;0.77;;
9186;SDS011;7273;48.902;9.410;2023-08-06T00:52:53;1.25;;;1.10;;
9186;SDS011;7273;48.902;9.410;2023-08-06T00:55:19;0.85;;;0.80;;
9186;SDS011;7273;48.902;9.410;2023-08-06T00:57:45;1.08;;;0.82;;
9186;SDS011;7273;48.902;9.410;2023-08-06T01:00:11;1.38;;;1.25;;
9186;SDS011;7273;48.902;9.410;2023-08-06T01:02:37;3.05;;;1.20;;
9186;SDS011;7273;48.902;9.410;2023-08-06T01:05:03;1.90;;;1.00;;
9186;SDS011;7273;48.902;9.410;2023-08-06T01:13:16;1.85;;;1.02;;
9186;SDS011;7273;48.902;9.410;2023-08-06T01:15:52;0.98;;;0.77;;
9186;SDS011;7273;48.902;9.410;2023-08-06T01:18:22;2.67;;;1.08;;
9186;SDS011;7273;48.902;9.410;2023-08-06T01:20:47;1.05;;;0.65;;
9186;SDS011;7273;48.902;9.410;2023-08-06T01:23:14;1.35;;;1.25;;
9186;SDS011;7273;48.902;9.410;2023-08-06T01:31:26;3.25;;;1.08;;
9186;SDS011;7273;48.902;9.410;2023-08-06T01:33:55;1.70;;;1.38;;
9186;SDS011;7273;48.902;9.410;2023-08-06T01:36:23;1.77;;;0.75;;
9186;SDS011;7273;48.902;9.410;2023-08-06T01:38:48;1.17;;;0.77;;
9186;SDS011;7273;48.902;9.410;2023-08-06T01:41:16;1.73;;;1.10;;
9186;SDS011;7273;48.902;9.410;2023-08-06T01:43:42;1.35;;;0.90;;
9186;SDS011;7273;48.902;9.410;2023-08-06T01:46:07;2.30;;;1.50;;
9186;SDS011;7273;48.902;9.410;2023-08-06T01:48:32;0.80;;;0.80;;
9186;SDS011;7273;48.902;9.410;2023-08-06T01:50:58;3.17;;;1.20;;
9186;SDS011;7273;48.902;9.410;2023-08-06T01:53:23;1.70;;;0.90;;
9186;SDS011;7273;48.902;9.410;2023-08-06T01:55:49;1.20;;;0.77;;
9186;SDS011;7273;48.902;9.410;2023-08-06T01:58:14;2.22;;;0.95;;
9186;SDS011;7273;48.902;9.410;2023-08-06T02:00:40;1.33;;;1.05;;
9186;SDS011;7273;48.902;9.410;2023-08-06T02:03:06;1.88;;;0.90;;
9186;SDS011;7273;48.902;9.410;2023-08-06T02:05:31;0.85;;;0.80;;
9186;SDS011;7273;48.902;9.410;2023-08-06T02:07:56;1.95;;;0.80;;
9186;SDS011;7273;48.902;9.410;2023-08-06T02:10:22;0.65;;;0.60;;
9186;SDS011;7273;48.902;9.410;2023-08-06T02:12:47;1.05;;;0.93;;
9186;SDS011;7273;48.902;9.410;2023-08-06T02:15:13;1.35;;;0.80;;
9186;SDS011;7273;48.902;9.410;2023-08-06T02:17:38;3.95;;;1.90;;
9186;SDS011;7273;48.902;9.410;2023-08-06T02:20:04;0.85;;;0.80;;
9186;SDS011;7273;48.902;9.410;2023-08-06T02:22:29;1.85;;;0.70;;
9186;SDS011;7273;48.902;9.410;2023-08-06T02:24:55;1.33;;;0.85;;
9186;SDS011;7273;48.902;9.410;2023-08-06T02:27:20;1.30;;;0.90;;
9186;SDS011;7273;48.902;9.410;2023-08-06T02:29:46;3.22;;;1.25;;
9186;SDS011;7273;48.902;9.410;2023-08-06T02:32:11;0.80;;;0.70;;
9186;SDS011;7273;48.902;9.410;2023-08-06T02:34:37;1.63;;;0.88;;
9186;SDS011;7273;48.902;9.410;2023-08-06T02:37:02;1.55;;;0.90;;
9186;SDS011;7273;48.902;9.410;2023-08-06T02:39:28;1.02;;;0.93;;
9186;SDS011;7273;48.902;9.410;2023-08-06T02:41:53;2.20;;;0.93;;
9186;SDS011;7273;48.902;9.410;2023-08-06T02:44:18;0.63;;;0.63;;
9186;SDS011;7273;48.902;9.410;2023-08-06T02:46:44;1.10;;;0.93;;
9186;SDS011;7273;48.902;9.410;2023-08-06T02:49:10;1.38;;;1.25;;
9186;SDS011;7273;48.902;9.410;2023-08-06T02:51:35;0.85;;;0.60;;
9186;SDS011;7273;48.902;9.410;2023-08-06T02:54:01;0.75;;;0.70;;
9186;SDS011;7273;48.902;9.410;2023-08-06T02:56:26;0.68;;;0.57;;
9186;SDS011;7273;48.902;9.410;2023-08-06T02:58:51;0.95;;;0.55;;
9186;SDS011;7273;48.902;9.410;2023-08-06T03:01:17;0.95;;;0.68;;
9186;SDS011;7273;48.902;9.410;2023-08-06T03:03:42;6.25;;;0.85;;
9186;SDS011;7273;48.902;9.410;2023-08-06T03:06:07;0.40;;;0.40;;
9186;SDS011;7273;48.902;9.410;2023-08-06T03:08:33;1.15;;;0.85;;
9186;SDS011;7273;48.902;9.410;2023-08-06T03:10:58;1.15;;;0.63;;
9186;SDS011;7273;48.902;9.410;2023-08-06T03:13:24;0.60;;;0.60;;
9186;SDS011;7273;48.902;9.410;2023-08-06T03:15:53;0.75;;;0.75;;
9186;SDS011;7273;48.902;9.410;2023-08-06T03:18:19;0.80;;;0.80;;
9186;SDS011;7273;48.902;9.410;2023-08-06T03:20:44;0.70;;;0.52;;
9186;SDS011;7273;48.902;9.410;2023-08-06T03:23:10;2.83;;;1.17;;
9186;SDS011;7273;48.902;9.410;2023-08-06T03:25:35;1.23;;;0.93;;
9186;SDS011;7273;48.902;9.410;2023-08-06T03:28:02;1.45;;;0.47;;
9186;SDS011;7273;48.902;9.410;2023-08-06T03:30:27;0.60;;;0.57;;
9186;SDS011;7273;48.902;9.410;2023-08-06T03:32:53;0.75;;;0.47;;
9186;SDS011;7273;48.902;9.410;2023-08-06T03:35:18;0.93;;;0.60;;
9186;SDS011;7273;48.902;9.410;2023-08-06T03:37:43;5.05;;;0.47;;
9186;SDS011;7273;48.902;9.410;2023-08-06T03:40:09;1.92;;;1.08;;
9186;SDS011;7273;48.902;9.410;2023-08-06T03:42:35;1.33;;;0.93;;
9186;SDS011;7273;48.902;9.410;2023-08-06T03:45:00;0.60;;;0.60;;
9186;SDS011;7273;48.902;9.410;2023-08-06T03:47:26;0.65;;;0.55;;
9186;SDS011;7273;48.902;9.410;2023-08-06T03:49:51;0.32;;;0.32;;
9186;SDS011;7273;48.902;9.410;2023-08-06T03:52:16;1.55;;;1.00;;
9186;SDS011;7273;48.902;9.410;2023-08-06T03:54:42;2.13;;;1.33;;
9186;SDS011;7273;48.902;9.410;2023-08-06T03:57:08;0.60;;;0.60;;
9186;SDS011;7273;48.902;9.410;2023-08-06T03:59:34;0.85;;;0.75;;
9186;SDS011;7273;48.902;9.410;2023-08-06T04:01:59;1.10;;;0.77;;
9186;SDS011;7273;48.902;9.410;2023-08-06T04:04:24;0.98;;;0.40;;
9186;SDS011;7273;48.902;9.410;2023-08-06T04:06:50;0.45;;;0.35;;
9186;SDS011;7273;48.902;9.410;2023-08-06T04:09:15;1.10;;;0.77;;
9186;SDS011;7273;48.902;9.410;2023-08-06T04:11:41;2.80;;;1.25;;
9186;SDS011;7273;48.902;9.410;2023-08-06T04:14:06;0.80;;;0.60;;
9186;SDS011;7273;48.902;9.410;2023-08-06T04:16:31;0.45;;;0.40;;
9186;SDS011;7273;48.902;9.410;2023-08-06T04:18:57;0.30;;;0.30;;
9186;SDS011;7273;48.902;9.410;2023-08-06T04:21:23;7.38;;;0.52;;
9186;SDS011;7273;48.902;9.410;2023-08-06T04:23:48;0.30;;;0.30;;
9186;SDS011;7273;48.902;9.410;2023-08-06T04:26:14;3.13;;;1.00;;
9186;SDS011;7273;48.902;9.410;2023-08-06T04:28:39;0.47;;;0.40;;
9186;SDS011;7273;48.902;9.410;2023-08-06T04:31:05;0.88;;;0.43;;
9186;SDS011;7273;48.902;9.410;2023-08-06T04:33:30;0.45;;;0.30;;
9186;SDS011;7273;48.902;9.410;2023-08-06T04:35:55;0.40;;;0.40;;
9186;SDS011;7273;48.902;9.410;2023-08-06T04:38:23;0.52;;;0.50;;
9186;SDS011;7273;48.902;9.410;2023-08-06T04:40:49;0.60;;;0.60;;
9186;SDS011;7273;48.902;9.410;2023-08-06T04:43:15;1.00;;;0.50;;
9186;SDS011;7273;48.902;9.410;2023-08-06T04:45:45;0.30;;;0.30;;
9186;SDS011;7273;48.902;9.410;2023-08-06T04:48:20;0.98;;;0.60;;
9186;SDS011;7273;48.902;9.410;2023-08-06T04:50:46;0.73;;;0.40;;
9186;SDS011;7273;48.902;9.410;2023-08-06T04:53:12;0.57;;;0.40;;
9186;SDS011;7273;48.902;9.410;2023-08-06T04:55:38;1.20;;;0.65;;
9186;SDS011;7273;48.902;9.410;2023-08-06T04:58:03;0.40;;;0.40;;
9186;SDS011;7273;48.902;9.410;2023-08-06T05:00:29;0.50;;;0.50;;
9186;SDS011;7273;48.902;9.410;2023-08-06T05:02:55;6.45;;;0.73;;
9186;SDS011;7273;48.902;9.410;2023-08-06T05:05:20;0.80;;;0.65;;
9186;SDS011;7273;48.902;9.410;2023-08-06T05:07:48;1.30;;;0.88;;
9186;SDS011;7273;48.902;9.410;2023-08-06T05:10:14;0.75;;;0.68;;
9186;SDS011;7273;48.902;9.410;2023-08-06T05:12:40;0.40;;;0.40;;
9186;SDS011;7273;48.902;9.410;2023-08-06T05:15:06;0.40;;;0.40;;
9186;SDS011;7273;48.902;9.410;2023-08-06T05:17:32;0.57;;;0.45;;
9186;SDS011;7273;48.902;9.410;2023-08-06T05:19:57;0.90;;;0.43;;
9186;SDS011;7273;48.902;9.410;2023-08-06T05:22:22;0.80;;;0.60;;
9186;SDS011;7273;48.902;9.410;2023-08-06T05:24:48;1.42;;;0.77;;
9186;SDS011;7273;48.902;9.410;2023-08-06T05:27:13;0.65;;;0.65;;
9186;SDS011;7273;48.902;9.410;2023-08-06T05:29:39;1.00;;;0.38;;
9186;SDS011;7273;48.902;9.410;2023-08-06T05:32:04;0.30;;;0.30;;
9186;SDS011;7273;48.902;9.410;2023-08-06T05:34:30;0.32;;;0.32;;
9186;SDS011;7273;48.902;9.410;2023-08-06T05:36:55;0.47;;;0.30;;
9186;SDS011;7273;48.902;9.410;2023-08-06T05:39:21;0.60;;;0.60;;
9186;SDS011;7273;48.902;9.410;2023-08-06T05:41:46;0.65;;;0.65;;
9186;SDS011;7273;48.902;9.410;2023-08-06T05:44:11;16.77;;;0.90;;
9186;SDS011;7273;48.902;9.410;2023-08-06T05:46:37;0.68;;;0.60;;
9186;SDS011;7273;48.902;9.410;2023-08-06T05:49:02;0.95;;;0.57;;
9186;SDS011;7273;48.902;9.410;2023-08-06T05:51:28;0.88;;;0.70;;
9186;SDS011;7273;48.902;9.410;2023-08-06T05:53:54;0.20;;;0.20;;
9186;SDS011;7273;48.902;9.410;2023-08-06T05:56:19;0.88;;;0.82;;
9186;SDS011;7273;48.902;9.410;2023-08-06T05:58:44;0.57;;;0.57;;
9186;SDS011;7273;48.902;9.410;2023-08-06T06:01:11;0.40;;;0.40;;
9186;SDS011;7273;48.902;9.410;2023-08-06T06:03:37;0.28;;;0.28;;
9186;SDS011;7273;48.902;9.410;2023-08-06T06:06:02;0.60;;;0.60;;
9186;SDS011;7273;48.902;9.410;2023-08-06T06:08:28;0.47;;;0.43;;
9186;SDS011;7273;48.902;9.410;2023-08-06T06:10:54;0.50;;;0.40;;
9186;SDS011;7273;48.902;9.410;2023-08-06T06:13:19;1.02;;;0.80;;
9186;SDS011;7273;48.902;9.410;2023-08-06T06:15:46;0.65;;;0.63;;
9186;SDS011;7273;48.902;9.410;2023-08-06T06:18:12;1.65;;;0.68;;
9186;SDS011;7273;48.902;9.410;2023-08-06T06:20:38;0.38;;;0.38;;
9186;SDS011;7273;48.902;9.410;2023-08-06T06:23:03;0.45;;;0.38;;
9186;SDS011;7273;48.902;9.410;2023-08-06T06:25:29;0.70;;;0.70;;
9186;SDS011;7273;48.902;9.410;2023-08-06T06:27:54;38.67;;;0.93;;
9186;SDS011;7273;48.902;9.410;2023-08-06T06:30:19;0.90;;;0.47;;
9186;SDS011;7273;48.902;9.410;2023-08-06T06:32:45;2.17;;;0.75;;
9186;SDS011;7273;48.902;9.410;2023-08-06T06:35:10;0.28;;;0.28;;
9186;SDS011;7273;48.902;9.410;2023-08-06T06:37:36;0.93;;;0.40;;
9186;SDS011;7273;48.902;9.410;2023-08-06T06:40:01;0.30;;;0.22;;
9186;SDS011;7273;48.902;9.410;2023-08-06T06:42:27;0.60;;;0.60;;
9186;SDS011;7273;48.902;9.410;2023-08-06T06:44:52;0.55;;;0.52;;
9186;SDS011;7273;48.902;9.410;2023-08-06T06:47:17;0.82;;;0.60;;
9186;SDS011;7273;48.902;9.410;2023-08-06T06:49:43;1.85;;;0.85;;
9186;SDS011;7273;48.902;9.410;2023-08-06T06:52:08;0.15;;;0.15;;
9186;SDS011;7273;48.902;9.410;2023-08-06T06:54:33;1.65;;;0.82;;
9186;SDS011;7273;48.902;9.410;2023-08-06T06:56:59;0.38;;;0.38;;
9186;SDS011;7273;48.902;9.410;2023-08-06T06:59:24;0.25;;;0.25;;
9186;SDS011;7273;48.902;9.410;2023-08-06T07:01:50;0.43;;;0.43;;
9186;SDS011;7273;48.902;9.410;2023-08-06T07:04:15;0.32;;;0.32;;
9186;SDS011;7273;48.902;9.410;2023-08-06T07:06:40;0.20;;;0.20;;
9186;SDS011;7273;48.902;9.410;2023-08-06T07:09:06;0.38;;;0.38;;
9186;SDS011;7273;48.902;9.410;2023-08-06T07:11:31;0.30;;;0.30;;
9186;SDS011;7273;48.902;9.410;2023-08-06T07:13:57;1.40;;;0.45;;
9186;SDS011;7273;48.902;9.410;2023-08-06T07:16:23;2.00;;;0.80;;
9186;SDS011;7273;48.902;9.410;2023-08-06T07:18:50;0.20;;;0.20;;
9186;SDS011;7273;48.902;9.410;2023-08-06T07:21:17;0.40;;;0.40;;
9186;SDS011;7273;48.902;9.410;2023-08-06T07:23:43;0.45;;;0.40;;
9186;SDS011;7273;48.902;9.410;2023-08-06T07:26:08;0.65;;;0.30;;
9186;SDS011;7273;48.902;9.410;2023-08-06T07:28:34;3.08;;;1.35;;
9186;SDS011;7273;48.902;9.410;2023-08-06T07:30:59;0.50;;;0.50;;
9186;SDS011;7273;48.902;9.410;2023-08-06T07:33:25;0.30;;;0.30;;
9186;SDS011;7273;48.902;9.410;2023-08-06T07:35:50;0.38;;;0.20;;
9186;SDS011;7273;48.902;9.410;2023-08-06T07:38:15;0.20;;;0.20;;
9186;SDS011;7273;48.902;9.410;2023-08-06T07:40:41;0.30;;;0.30;;
9186;SDS011;7273;48.902;9.410;2023-08-06T07:43:07;0.20;;;0.20;;
9186;SDS011;7273;48.902;9.410;2023-08-06T07:45:33;0.32;;;0.32;;
9186;SDS011;7273;48.902;9.410;2023-08-06T07:47:59;0.20;;;0.20;;
9186;SDS011;7273;48.902;9.410;2023-08-06T07:50:25;3.70;;;0.30;;
9186;SDS011;7273;48.902;9.410;2023-08-06T07:52:50;0.20;;;0.20;;
9186;SDS011;7273;48.902;9.410;2023-08-06T07:55:16;1.98;;;0.50;;
9186;SDS011;7273;48.902;9.410;2023-08-06T07:57:41;0.30;;;0.10;;
9186;SDS011;7273;48.902;9.410;2023-08-06T08:00:06;0.28;;;0.28;;
9186;SDS011;7273;48.902;9.410;2023-08-06T08:02:32;0.25;;;0.25;;
9186;SDS011;7273;48.902;9.410;2023-08-06T08:04:58;0.10;;;0.10;;
9186;SDS011;7273;48.902;9.410;2023-08-06T08:07:23;0.35;;;0.25;;
9186;SDS011;7273;48.902;9.410;2023-08-06T08:09:48;2.20;;;0.55;;
9186;SDS011;7273;48.902;9.410;2023-08-06T08:12:14;0.15;;;0.15;;
9186;SDS011;7273;48.902;9.410;2023-08-06T08:14:39;0.20;;;0.20;;
9186;SDS011;7273;48.902;9.410;2023-08-06T08:17:05;0.25;;;0.25;;
9186;SDS011;7273;48.902;9.410;2023-08-06T08:19:31;0.32;;;0.30;;
9186;SDS011;7273;48.902;9.410;2023-08-06T08:21:57;0.40;;;0.20;;
9186;SDS011;7273;48.902;9.410;2023-08-06T08:24:23;0.52;;;0.28;;
9186;SDS011;7273;48.902;9.410;2023-08-06T08:26:52;0.20;;;0.20;;
9186;SDS011;7273;48.902;9.410;2023-08-06T08:29:19;0.47;;;0.47;;
9186;SDS011;7273;48.902;9.410;2023-08-06T08:31:45;0.15;;;0.15;;
9186;SDS011;7273;48.902;9.410;2023-08-06T08:34:10;1.65;;;0.40;;
9186;SDS011;7273;48.902;9.410;2023-08-06T08:36:36;0.10;;;0.10;;
9186;SDS011;7273;48.902;9.410;2023-08-06T08:39:01;0.90;;;0.30;;
9186;SDS011;7273;48.902;9.410;2023-08-06T08:41:29;0.20;;;0.20;;
9186;SDS011;7273;48.902;9.410;2023-08-06T08:43:56;0.20;;;0.20;;
9186;SDS011;7273;48.902;9.410;2023-08-06T08:46:24;0.38;;;0.30;;
9186;SDS011;7273;48.902;9.410;2023-08-06T08:48:51;0.30;;;0.30;;
9186;SDS011;7273;48.902;9.410;2023-08-06T08:51:18;0.30;;;0.30;;
9186;SDS011;7273;48.902;9.410;2023-08-06T08:53:45;0.35;;;0.20;;
9186;SDS011;7273;48.902;9.410;2023-08-06T08:56:12;0.20;;;0.20;;
9186;SDS011;7273;48.902;9.410;2023-08-06T08:58:39;0.32;;;0.30;;
9186;SDS011;7273;48.902;9.410;2023-08-06T09:01:05;0.25;;;0.25;;
9186;SDS011;7273;48.902;9.410;2023-08-06T09:03:32;0.20;;;0.20;;
9186;SDS011;7273;48.902;9.410;2023-08-06T09:05:59;0.10;;;0.10;;
9186;SDS011;7273;48.902;9.410;2023-08-06T09:08:27;0.10;;;0.10;;
9186;SDS011;7273;48.902;9.410;2023-08-06T09:10:56;0.20;;;0.20;;
9186;SDS011;7273;48.902;9.410;2023-08-06T09:13:23;0.25;;;0.25;;
9186;SDS011;7273;48.902;9.410;2023-08-06T09:15:48;0.20;;;0.20;;
9186;SDS011;7273;48.902;9.410;2023-08-06T09:18:16;0.30;;;0.30;;
9186;SDS011;7273;48.902;9.410;2023-08-06T09:20:51;0.65;;;0.65;;
9186;SDS011;7273;48.902;9.410;2023-08-06T09:23:16;0.15;;;0.15;;
9186;SDS011;7273;48.902;9.410;2023-08-06T09:25:42;0.00;;;0.00;;
9186;SDS011;7273;48.902;9.410;2023-08-06T09:28:07;0.13;;;0.13;;
9186;SDS011;7273;48.902;9.410;2023-08-06T09:30:34;0.20;;;0.20;;
9186;SDS011;7273;48.902;9.410;2023-08-06T09:33:01;0.43;;;0.38;;
9186;SDS011;7273;48.902;9.410;2023-08-06T09:35:30;0.20;;;0.20;;
9186;SDS011;7273;48.902;9.410;2023-08-06T09:38:14;0.20;;;0.20;;
9186;SDS011;7273;48.902;9.410;2023-08-06T09:40:39;0.10;;;0.10;;
9186;SDS011;7273;48.902;9.410;2023-08-06T09:43:05;0.30;;;0.30;;
9186;SDS011;7273;48.902;9.410;2023-08-06T09:45:32;0.17;;;0.17;;
9186;SDS011;7273;48.902;9.410;2023-08-06T09:47:59;0.25;;;0.25;;
9186;SDS011;7273;48.902;9.410;2023-08-06T09:50:30;0.17;;;0.17;;
9186;SDS011;7273;48.902;9.410;2023-08-06T09:52:58;0.25;;;0.25;;
9186;SDS011;7273;48.902;9.410;2023-08-06T09:55:24;0.00;;;0.00;;
9186;SDS011;7273;48.902;9.410;2023-08-06T09:57:51;0.15;;;0.15;;
9186;SDS011;7273;48.902;9.410;2023-08-06T10:00:17;0.00;;;0.00;;
9186;SDS011;7273;48.902;9.410;2023-08-06T10:02:43;0.17;;;0.17;;
9186;SDS011;7273;48.902;9.410;2023-08-06T10:05:10;6.28;;;0.30;;
9186;SDS011;7273;48.902;9.410;2023-08-06T10:07:36;0.20;;;0.20;;
9186;SDS011;7273;48.902;9.410;2023-08-06T10:10:04;0.10;;;0.10;;
9186;SDS011;7273;48.902;9.410;2023-08-06T10:12:31;0.20;;;0.20;;
9186;SDS011;7273;48.902;9.410;2023-08-06T10:15:01;0.25;;;0.25;;
9186;SDS011;7273;48.902;9.410;2023-08-06T10:17:29;0.20;;;0.20;;
9186;SDS011;7273;48.902;9.410;2023-08-06T10:19:56;0.32;;;0.32;;
9186;SDS011;7273;48.902;9.410;2023-08-06T10:22:24;0.15;;;0.15;;
9186;SDS011;7273;48.902;9.410;2023-08-06T10:24:56;0.20;;;0.20;;
9186;SDS011;7273;48.902;9.410;2023-08-06T10:27:33;0.00;;;0.00;;
9186;SDS011;7273;48.902;9.410;2023-08-06T10:33:01;0.10;;;0.10;;
9186;SDS011;7273;48.902;9.410;2023-08-06T10:35:35;0.90;;;0.20;;
9186;SDS011;7273;48.902;9.410;2023-08-06T10:38:15;0.20;;;0.20;;
9186;SDS011;7273;48.902;9.410;2023-08-06T10:40:52;0.22;;;0.22;;
9186;SDS011;7273;48.902;9.410;2023-08-06T10:43:33;0.20;;;0.20;;
9186;SDS011;7273;48.902;9.410;2023-08-06T10:46:03;0.17;;;0.17;;
9186;SDS011;7273;48.902;9.410;2023-08-06T10:48:35;0.10;;;0.10;;
9186;SDS011;7273;48.902;9.410;2023-08-06T10:51:08;0.15;;;0.15;;
9186;SDS011;7273;48.902;9.410;2023-08-06T10:53:35;0.20;;;0.20;;
9186;SDS011;7273;48.902;9.410;2023-08-06T10:56:01;0.30;;;0.30;;
9186;SDS011;7273;48.902;9.410;2023-08-06T10:58:33;0.20;;;0.20;;
9186;SDS011;7273;48.902;9.410;2023-08-06T11:00:58;0.13;;;0.13;;
9186;SDS011;7273;48.902;9.410;2023-08-06T11:03:24;0.35;;;0.35;;
9186;SDS011;7273;48.902;9.410;2023-08-06T11:05:51;0.20;;;0.20;;
9186;SDS011;7273;48.902;9.410;2023-08-06T11:08:26;0.20;;;0.20;;
9186;SDS011;7273;48.902;9.410;2023-08-06T11:10:53;0.20;;;0.20;;
9186;SDS011;7273;48.902;9.410;2023-08-06T11:13:19;0.20;;;0.20;;
9186;SDS011;7273;48.902;9.410;2023-08-06T11:15:45;0.10;;;0.10;;
9186;SDS011;7273;48.902;9.410;2023-08-06T11:18:11;0.28;;;0.28;;
9186;SDS011;7273;48.902;9.410;2023-08-06T11:20:36;0.13;;;0.13;;
9186;SDS011;7273;48.902;9.410;2023-08-06T11:23:03;0.10;;;0.10;;
9186;SDS011;7273;48.902;9.410;2023-08-06T11:25:29;0.47;;;0.47;;
9186;SDS011;7273;48.902;9.410;2023-08-06T11:27:55;0.00;;;0.00;;
9186;SDS011;7273;48.902;9.410;2023-08-06T11:30:21;0.17;;;0.17;;
9186;SDS011;7273;48.902;9.410;2023-08-06T11:32:47;0.17;;;0.17;;
9186;SDS011;7273;48.902;9.410;2023-08-06T11:35:13;2.78;;;0.30;;
9186;SDS011;7273;48.902;9.410;2023-08-06T11:37:40;0.20;;;0.20;;
9186;SDS011;7273;48.902;9.410;2023-08-06T11:40:09;0.17;;;0.17;;
9186;SDS011;7273;48.902;9.410;2023-08-06T11:42:36;0.20;;;0.20;;
9186;SDS011;7273;48.902;9.410;2023-08-06T11:45:02;0.65;;;0.30;;
9186;SDS011;7273;48.902;9.410;2023-08-06T11:47:29;0.20;;;0.20;;
9186;SDS011;7273;48.902;9.410;2023-08-06T11:49:55;0.17;;;0.17;;
9186;SDS011;7273;48.902;9.410;2023-08-06T11:52:21;4.07;;;0.30;;
9186;SDS011;7273;48.902;9.410;2023-08-06T11:55:03;0.20;;;0.20;;
9186;SDS011;7273;48.902;9.410;2023-08-06T11:57:35;0.20;;;0.20;;
9186;SDS011;7273;48.902;9.410;2023-08-06T12:00:09;0.28;;;0.28;;
9186;SDS011;7273;48.902;9.410;2023-08-06T12:02:38;0.20;;;0.20;;
9186;SDS011;7273;48.902;9.410;2023-08-06T12:07:36;0.57;;;0.57;;
9186;SDS011;7273;48.902;9.410;2023-08-06T12:10:03;0.17;;;0.17;;
9186;SDS011;7273;48.902;9.410;2023-08-06T12:12:29;0.20;;;0.20;;
9186;SDS011;7273;48.902;9.410;2023-08-06T12:14:54;0.10;;;0.10;;
9186;SDS011;7273;48.902;9.410;2023-08-06T12:17:21;1.05;;;0.80;;
9186;SDS011;7273;48.902;9.410;2023-08-06T12:19:47;0.15;;;0.15;;
9186;SDS011;7273;48.902;9.410;2023-08-06T12:22:13;0.30;;;0.30;;
9186;SDS011;7273;48.902;9.410;2023-08-06T12:24:40;0.30;;;0.30;;
9186;SDS011;7273;48.902;9.410;2023-08-06T12:27:06;0.32;;;0.32;;
9186;SDS011;7273;48.902;9.410;2023-08-06T12:29:31;0.30;;;0.30;;
9186;SDS011;7273;48.902;9.410;2023-08-06T12:31:57;0.13;;;0.10;;
9186;SDS011;7273;48.902;9.410;2023-08-06T12:34:22;3.60;;;0.52;;
9186;SDS011;7273;48.902;9.410;2023-08-06T12:36:48;0.40;;;0.20;;
9186;SDS011;7273;48.902;9.410;2023-08-06T12:39:13;0.65;;;0.50;;
9186;SDS011;7273;48.902;9.410;2023-08-06T12:41:38;0.52;;;0.50;;
9186;SDS011;7273;48.902;9.410;2023-08-06T12:44:04;1.80;;;0.52;;
9186;SDS011;7273;48.902;9.410;2023-08-06T12:46:29;3.20;;;0.35;;
9186;SDS011;7273;48.902;9.410;2023-08-06T12:48:56;0.20;;;0.20;;
9186;SDS011;7273;48.902;9.410;2023-08-06T12:51:22;0.60;;;0.52;;
9186;SDS011;7273;48.902;9.410;2023-08-06T12:53:48;0.90;;;0.70;;
9186;SDS011;7273;48.902;9.410;2023-08-06T12:56:14;1.70;;;0.77;;
9186;SDS011;7273;48.902;9.410;2023-08-06T12:58:39;0.20;;;0.20;;
9186;SDS011;7273;48.902;9.410;2023-08-06T13:01:05;0.60;;;0.47;;
9186;SDS011;7273;48.902;9.410;2023-08-06T13:03:30;1.85;;;0.55;;
9186;SDS011;7273;48.902;9.410;2023-08-06T13:05:56;0.35;;;0.35;;
9186;SDS011;7273;48.902;9.410;2023-08-06T13:08:22;2.05;;;0.32;;
9186;SDS011;7273;48.902;9.410;2023-08-06T13:10:48;0.45;;;0.40;;
9186;SDS011;7273;48.902;9.410;2023-08-06T13:13:13;0.30;;;0.30;;
9186;SDS011;7273;48.902;9.410;2023-08-06T13:15:39;0.50;;;0.50;;
9186;SDS011;7273;48.902;9.410;2023-08-06T13:18:04;0.35;;;0.35;;
9186;SDS011;7273;48.902;9.410;2023-08-06T13:20:30;0.55;;;0.55;;
9186;SDS011;7273;48.902;9.410;2023-08-06T13:22:55;0.90;;;0.50;;
9186;SDS011;7273;48.902;9.410;2023-08-06T13:25:23;0.17;;;0.17;;
9186;SDS011;7273;48.902;9.410;2023-08-06T13:27:48;0.88;;;0.30;;
9186;SDS011;7273;48.902;9.410;2023-08-06T13:30:13;0.17;;;0.17;;
9186;SDS011;7273;48.902;9.410;2023-08-06T13:32:39;0.55;;;0.30;;
9186;SDS011;7273;48.902;9.410;2023-08-06T13:35:04;0.47;;;0.35;;
9186;SDS011;7273;48.902;9.410;2023-08-06T13:37:30;0.40;;;0.40;;
9186;SDS011;7273;48.902;9.410;2023-08-06T13:39:56;0.35;;;0.35;;
9186;SDS011;7273;48.902;9.410;2023-08-06T13:42:21;0.45;;;0.43;;
9186;SDS011;7273;48.902;9.410;2023-08-06T13:44:47;0.20;;;0.20;;
9186;SDS011;7273;48.902;9.410;2023-08-06T13:47:12;0.20;;;0.20;;
9186;SDS011;7273;48.902;9.410;2023-08-06T13:49:38;0.25;;;0.25;;
9186;SDS011;7273;48.902;9.410;2023-08-06T13:52:03;1.35;;;0.75;;
9186;SDS011;7273;48.902;9.410;2023-08-06T13:54:29;0.32;;;0.32;;
9186;SDS011;7273;48.902;9.410;2023-08-06T13:56:54;0.50;;;0.50;;
9186;SDS011;7273;48.902;9.410;2023-08-06T13:59:20;0.10;;;0.10;;
9186;SDS011;7273;48.902;9.410;2023-08-06T14:01:45;0.20;;;0.20;;
9186;SDS011;7273;48.902;9.410;2023-08-06T14:04:11;0.28;;;0.28;;
9186;SDS011;7273;48.902;9.410;2023-08-06T14:06:38;0.20;;;0.20;;
9186;SDS011;7273;48.902;9.410;2023-08-06T14:09:03;0.25;;;0.25;;
9186;SDS011;7273;48.902;9.410;2023-08-06T14:11:29;0.50;;;0.32;;
9186;SDS011;7273;48.902;9.410;2023-08-06T14:13:54;2.47;;;0.35;;
9186;SDS011;7273;48.902;9.410;2023-08-06T14:16:20;0.40;;;0.40;;
9186;SDS011;7273;48.902;9.410;2023-08-06T14:18:45;0.30;;;0.30;;
9186;SDS011;7273;48.902;9.410;2023-08-06T14:21:11;0.55;;;0.47;;
9186;SDS011;7273;48.902;9.410;2023-08-06T14:23:36;0.30;;;0.30;;
9186;SDS011;7273;48.902;9.410;2023-08-06T14:26:01;0.38;;;0.32;;
9186;SDS011;7273;48.902;9.410;2023-08-06T14:28:27;0.55;;;0.32;;
9186;SDS011;7273;48.902;9.410;2023-08-06T14:30:52;0.50;;;0.38;;
9186;SDS011;7273;48.902;9.410;2023-08-06T14:33:18;0.20;;;0.20;;
9186;SDS011;7273;48.902;9.410;2023-08-06T14:35:43;0.70;;;0.38;;
9186;SDS011;7273;48.902;9.410;2023-08-06T14:38:09;0.17;;;0.10;;
9186;SDS011;7273;48.902;9.410;2023-08-06T14:40:34;0.38;;;0.30;;
9186;SDS011;7273;48.902;9.410;2023-08-06T14:43:03;0.22;;;0.22;;
9186;SDS011;7273;48.902;9.410;2023-08-06T14:45:31;0.22;;;0.22;;
9186;SDS011;7273;48.902;9.410;2023-08-06T14:47:57;0.52;;;0.52;;
9186;SDS011;7273;48.902;9.410;2023-08-06T14:50:22;0.63;;;0.60;;
9186;SDS011;7273;48.902;9.410;2023-08-06T14:52:48;0.25;;;0.20;;
9186;SDS011;7273;48.902;9.410;2023-08-06T14:55:25;0.77;;;0.43;;
9186;SDS011;7273;48.902;9.410;2023-08-06T14:57:51;0.30;;;0.30;;
9186;SDS011;7273;48.902;9.410;2023-08-06T15:00:17;0.50;;;0.50;;
9186;SDS011;7273;48.902;9.410;2023-08-06T15:02:44;0.45;;;0.35;;
9186;SDS011;7273;48.902;9.410;2023-08-06T15:05:10;2.17;;;0.57;;
9186;SDS011;7273;48.902;9.410;2023-08-06T15:07:35;0.35;;;0.30;;
9186;SDS011;7273;48.902;9.410;2023-08-06T15:10:02;0.30;;;0.30;;
9186;SDS011;7273;48.902;9.410;2023-08-06T15:12:27;0.40;;;0.40;;
9186;SDS011;7273;48.902;9.410;2023-08-06T15:14:53;0.20;;;0.20;;
9186;SDS011;7273;48.902;9.410;2023-08-06T15:17:21;1.05;;;0.40;;
9186;SDS011;7273;48.902;9.410;2023-08-06T15:19:47;0.30;;;0.30;;
9186;SDS011;7273;48.902;9.410;2023-08-06T15:22:12;1.35;;;1.00;;
9186;SDS011;7273;48.902;9.410;2023-08-06T15:24:38;0.10;;;0.10;;
9186;SDS011;7273;48.902;9.410;2023-08-06T15:27:07;0.30;;;0.30;;